Time;durP1;ratioP1;P1;durP2;ratioP2;P2;SDS_P1;SDS_P2;PMS_P1;PMS_P2;Temp;Humidity;BMP_temperature;BMP_pressure;BME280_temperature;BME280_humidity;BME280_pressure;Samples;Min_cycle;Max_cycle;Signal;HPM_P1;HPM_P2
2021/12/12 00:00:48;;;;;;;;;;;19.90;99.90;;;;;;5018660;28;7816;-74
2021/12/12 00:03:20;;;;;;;;;;;19.90;99.90;;;;;;5018641;28;8004;-74
2021/12/12 00:05:54;;;;;;;;;;;19.90;99.90;;;;;;5036462;28;7988;-73
2021/12/12 00:08:21;;;;;;;;;;;19.90;99.90;;;;;;5018559;28;9560;-74
2021/12/12 00:10:48;;;;;;;;;;;19.90;99.90;;;;;;5018420;28;7812;-73
2021/12/12 00:13:17;;;;;;;;;;;19.80;99.90;;;;;;5018864;28;7573;-73
2021/12/12 00:15:43;;;;;;;;;;;19.90;99.90;;;;;;5017973;28;7823;-73
2021/12/12 00:18:09;;;;;;;;;;;20.00;99.90;;;;;;5018042;28;7884;-73
2021/12/12 00:20:36;;;;;;;;;;;19.90;99.90;;;;;;5035993;28;8133;-73
2021/12/12 00:23:02;;;;;;;;;;;20.00;99.90;;;;;;5001427;28;7882;-74
2021/12/12 00:25:32;;;;;;;;;;;20.00;99.90;;;;;;5001854;28;7785;-74
2021/12/12 00:27:58;;;;;;;;;;;20.00;99.90;;;;;;5018601;28;7554;-74
2021/12/12 00:30:25;;;;;;;;;;;20.00;99.90;;;;;;5018239;28;7858;-73
2021/12/12 00:32:52;;;;;;;;;;;20.10;99.90;;;;;;5018098;28;7872;-74
2021/12/12 00:35:18;;;;;;;;;;;20.20;99.90;;;;;;5035240;28;8017;-74
2021/12/12 00:37:45;;;;;;;;;;;20.20;99.90;;;;;;5017600;28;7959;-73
2021/12/12 00:40:26;;;;;;;;;;;20.20;99.90;;;;;;5018472;28;7553;-73
2021/12/12 00:42:53;;;;;;;;;;;20.10;99.90;;;;;;5018273;28;7527;-73
2021/12/12 00:45:19;;;;;;;;;;;20.30;99.90;;;;;;5034465;28;9017;-73
2021/12/12 00:47:46;;;;;;;;;;;20.30;99.90;;;;;;5017450;28;7983;-73
2021/12/12 00:50:14;;;;;;;;;;;20.30;99.90;;;;;;5018616;28;8054;-73
2021/12/12 00:52:41;;;;;;;;;;;20.30;99.90;;;;;;5037417;28;7972;-73
2021/12/12 00:55:07;;;;;;;;;;;20.30;99.90;;;;;;5021923;28;7947;-74
2021/12/12 00:57:33;;;;;;;;;;;20.30;99.90;;;;;;5038899;28;7905;-74
2021/12/12 01:00:00;;;;;;;;;;;20.30;99.90;;;;;;5021950;28;7893;-74
2021/12/12 01:02:27;;;;;;;;;;;20.40;99.90;;;;;;5005211;28;7978;-73
2021/12/12 01:04:54;;;;;;;;;;;20.50;99.90;;;;;;5021699;28;7984;-74
2021/12/12 01:07:22;;;;;;;;;;;20.50;99.90;;;;;;5039471;28;7596;-73
2021/12/12 01:09:53;;;;;;;;;;;20.60;99.90;;;;;;5005537;28;9023;-74
2021/12/12 01:12:21;;;;;;;;;;;20.50;99.90;;;;;;5021499;28;8073;-74
2021/12/12 01:14:49;;;;;;;;;;;20.60;99.90;;;;;;5039296;28;7973;-73
2021/12/12 01:17:20;;;;;;;;;;;20.60;99.90;;;;;;5021500;28;8018;-73
2021/12/12 01:19:50;;;;;;;;;;;20.60;99.90;;;;;;5005219;28;8165;-73
2021/12/12 01:22:25;;;;;;;;;;;20.60;99.90;;;;;;5022122;28;7563;-73
2021/12/12 01:24:51;;;;;;;;;;;20.70;99.90;;;;;;5020521;28;8889;-74
2021/12/12 01:27:18;;;;;;;;;;;20.80;99.90;;;;;;5001480;28;8842;-74
2021/12/12 01:29:44;;;;;;;;;;;20.90;99.90;;;;;;4994155;28;9004;-73
2021/12/12 01:32:17;;;;;;;;;;;21.00;99.90;;;;;;4982337;28;8060;-74
2021/12/12 01:34:43;;;;;;;;;;;20.90;99.90;;;;;;4983143;28;7849;-74
2021/12/12 01:39:49;;;;;;;;;;;21.10;99.90;;;;;;5002935;28;8361;-74
2021/12/12 01:42:16;;;;;;;;;;;21.20;99.90;;;;;;5001429;28;7817;-73
2021/12/12 01:44:47;;;;;;;;;;;21.10;99.90;;;;;;5008371;28;8077;-74
2021/12/12 01:47:22;;;;;;;;;;;21.10;99.90;;;;;;5021095;28;7866;-74
2021/12/12 01:49:49;;;;;;;;;;;21.20;99.90;;;;;;5038916;28;7927;-74
2021/12/12 01:52:16;;;;;;;;;;;21.40;99.90;;;;;;5021481;28;7622;-73
2021/12/12 01:54:45;;;;;;;;;;;21.50;99.90;;;;;;5038347;28;7902;-73
2021/12/12 01:57:30;;;;;;;;;;;21.50;99.90;;;;;;5004188;28;7831;-73
2021/12/12 01:59:57;;;;;;;;;;;21.60;99.90;;;;;;5004223;28;7828;-74
2021/12/12 02:02:25;;;;;;;;;;;21.60;99.90;;;;;;5004368;28;8103;-74
2021/12/12 02:04:53;;;;;;;;;;;21.80;99.90;;;;;;5004324;28;8100;-74
2021/12/12 02:07:26;;;;;;;;;;;21.80;99.90;;;;;;5021359;28;7555;-74
2021/12/12 02:09:52;;;;;;;;;;;21.90;99.90;;;;;;5003195;28;10065;-74
2021/12/12 02:12:19;;;;;;;;;;;22.00;99.90;;;;;;5038369;28;7919;-73
2021/12/12 02:14:45;;;;;;;;;;;22.00;99.90;;;;;;5020809;28;7817;-73
2021/12/12 02:17:20;;;;;;;;;;;22.00;99.90;;;;;;5021024;28;7844;-73
2021/12/12 02:20:12;;;;;;;;;;;22.10;99.90;;;;;;5005262;28;8013;-73
2021/12/12 02:36:13;;;;;;;;;;;22.20;99.90;;;;;;5038666;28;7931;-73
2021/12/12 02:38:39;;;;;;;;;;;22.30;99.90;;;;;;5020682;28;7891;-73
2021/12/12 02:41:07;;;;;;;;;;;22.40;99.90;;;;;;5020637;28;8184;-73
2021/12/12 02:43:35;;;;;;;;;;;22.50;99.90;;;;;;5020313;28;7861;-73
2021/12/12 02:46:01;;;;;;;;;;;22.60;99.90;;;;;;5038245;28;7578;-73
2021/12/12 02:48:29;;;;;;;;;;;22.70;99.90;;;;;;5037967;28;7796;-73
2021/12/12 02:50:57;;;;;;;;;;;22.70;99.90;;;;;;5020633;28;7868;-73
2021/12/12 02:53:24;;;;;;;;;;;22.80;99.90;;;;;;5003944;28;7807;-73
2021/12/12 02:56:01;;;;;;;;;;;22.80;99.90;;;;;;5004065;28;8025;-73
2021/12/12 02:58:27;;;;;;;;;;;22.90;99.90;;;;;;5037638;28;8009;-73
2021/12/12 03:00:56;;;;;;;;;;;23.00;99.90;;;;;;5021046;28;7613;-73
2021/12/12 03:03:24;;;;;;;;;;;23.20;99.90;;;;;;5020176;28;8208;-73
2021/12/12 03:05:51;;;;;;;;;;;23.20;99.90;;;;;;5010613;28;7948;-73
2021/12/12 03:08:17;;;;;;;;;;;23.20;99.90;;;;;;5017116;28;8059;-73
2021/12/12 03:10:44;;;;;;;;;;;23.30;99.90;;;;;;5020222;28;9287;-73
2021/12/12 03:13:10;;;;;;;;;;;23.30;99.90;;;;;;5021314;28;7550;-73
2021/12/12 03:15:39;;;;;;;;;;;23.40;99.90;;;;;;5000593;28;7880;-74
2021/12/12 03:18:06;;;;;;;;;;;23.50;99.90;;;;;;5000498;28;7993;-73
2021/12/12 03:20:34;;;;;;;;;;;23.60;99.90;;;;;;5000620;28;8032;-73
2021/12/12 03:23:01;;;;;;;;;;;23.60;99.90;;;;;;5016859;28;7788;-74
2021/12/12 03:25:27;;;;;;;;;;;23.70;99.90;;;;;;5000166;28;7867;-74
2021/12/12 03:27:53;;;;;;;;;;;23.80;99.90;;;;;;5001061;28;7563;-73
2021/12/12 03:30:19;;;;;;;;;;;23.90;99.90;;;;;;5013384;28;8072;-73
2021/12/12 03:32:46;;;;;;;;;;;23.90;99.90;;;;;;5003607;28;7949;-73
2021/12/12 03:35:12;;;;;;;;;;;24.00;99.90;;;;;;5020325;28;7762;-73
2021/12/12 03:37:38;;;;;;;;;;;24.00;99.90;;;;;;5020939;28;7789;-73
2021/12/12 03:40:08;;;;;;;;;;;24.20;99.90;;;;;;5021335;28;7567;-73
2021/12/12 03:42:34;;;;;;;;;;;24.20;99.90;;;;;;5020999;28;7890;-74
2021/12/12 03:45:00;;;;;;;;;;;24.30;99.90;;;;;;5019814;28;7847;-74
2021/12/12 03:47:40;;;;;;;;;;;24.30;99.90;;;;;;5020655;28;8058;-73
2021/12/12 03:50:08;;;;;;;;;;;24.40;99.90;;;;;;5019758;28;8004;-74
2021/12/12 03:52:35;;;;;;;;;;;24.40;99.90;;;;;;5019690;28;7776;-73
2021/12/12 03:55:01;;;;;;;;;;;24.50;99.90;;;;;;5019999;28;7535;-73
2021/12/12 03:57:28;;;;;;;;;;;24.60;99.90;;;;;;5019174;28;7838;-73
2021/12/12 03:59:54;;;;;;;;;;;24.90;99.90;;;;;;5019406;28;7993;-73
2021/12/12 04:02:20;;;;;;;;;;;24.90;99.90;;;;;;5019136;28;7858;-74
2021/12/12 04:04:47;;;;;;;;;;;25.00;99.90;;;;;;5019639;28;7785;-73
2021/12/12 04:07:16;;;;;;;;;;;25.00;99.90;;;;;;5003121;28;7554;-74
2021/12/12 04:09:42;;;;;;;;;;;25.10;99.90;;;;;;5019027;28;7852;-73
2021/12/12 04:12:09;;;;;;;;;;;25.00;99.90;;;;;;5019296;28;7812;-73
2021/12/12 04:14:35;;;;;;;;;;;25.20;99.90;;;;;;5019219;28;7982;-74
2021/12/12 04:17:04;;;;;;;;;;;25.30;99.90;;;;;;5019807;28;7975;-74
2021/12/12 04:19:30;;;;;;;;;;;25.30;99.90;;;;;;5020075;28;7783;-74
2021/12/12 04:21:57;;;;;;;;;;;25.40;99.90;;;;;;5019759;28;7563;-73
2021/12/12 04:24:24;;;;;;;;;;;25.40;99.90;;;;;;5020139;28;7945;-74
2021/12/12 04:26:50;;;;;;;;;;;25.40;99.90;;;;;;5018996;28;7984;-74
2021/12/12 04:29:18;;;;;;;;;;;25.50;99.90;;;;;;5018986;28;8039;-74
2021/12/12 04:31:47;;;;;;;;;;;25.50;99.90;;;;;;5018784;28;7869;-73
2021/12/12 04:34:13;;;;;;;;;;;25.60;99.90;;;;;;5003123;28;7557;-74
2021/12/12 04:36:41;;;;;;;;;;;25.60;99.90;;;;;;5002292;28;7835;-73
2021/12/12 04:39:08;;;;;;;;;;;25.70;99.90;;;;;;5018786;28;7957;-74
2021/12/12 04:41:35;;;;;;;;;;;25.90;99.90;;;;;;5018825;28;7911;-74
2021/12/12 04:44:01;;;;;;;;;;;26.00;99.90;;;;;;5002250;28;8117;-74
2021/12/12 04:46:37;;;;;;;;;;;26.10;99.90;;;;;;5019850;28;7866;-74
2021/12/12 04:51:49;;;;;;;;;;;26.30;99.90;;;;;;5018923;28;8039;-73
2021/12/12 04:54:33;;;;;;;;;;;26.30;99.90;;;;;;5002636;28;7961;-73
2021/12/12 04:57:04;;;;;;;;;;;26.30;99.90;;;;;;5019924;28;8288;-74
2021/12/12 04:59:35;;;;;;;;;;;26.40;99.90;;;;;;5018241;28;8170;-74
2021/12/12 05:02:04;;;;;;;;;;;26.40;99.90;;;;;;5018205;28;7971;-74
2021/12/12 05:04:39;;;;;;;;;;;26.40;99.90;;;;;;5018315;28;7876;-74
2021/12/12 05:07:16;;;;;;;;;;;26.50;99.90;;;;;;5030520;28;7579;-74
2021/12/12 05:09:49;;;;;;;;;;;26.50;99.90;;;;;;5038518;28;7928;-74
2021/12/12 05:12:31;;;;;;;;;;;26.50;99.90;;;;;;5005696;28;7846;-74
2021/12/12 05:15:01;;;;;;;;;;;26.50;99.90;;;;;;5039252;28;7797;-73
2021/12/12 05:17:40;;;;;;;;;;;26.60;99.90;;;;;;5021458;28;7929;-74
2021/12/12 05:20:08;;;;;;;;;;;26.60;99.90;;;;;;5022204;28;7844;-73
2021/12/12 05:22:38;;;;;;;;;;;26.70;99.90;;;;;;5005120;28;8724;-74
2021/12/12 05:25:06;;;;;;;;;;;26.70;99.90;;;;;;5021703;28;7539;-74
2021/12/12 05:27:32;;;;;;;;;;;26.60;99.90;;;;;;5020615;28;9015;-74
2021/12/12 05:30:03;;;;;;;;;;;26.70;99.90;;;;;;5021376;28;7759;-74
2021/12/12 05:32:30;;;;;;;;;;;26.90;99.90;;;;;;5029536;28;8047;-74
2021/12/12 05:34:56;;;;;;;;;;;26.80;99.70;;;;;;5038789;28;7956;-74
2021/12/12 05:37:23;;;;;;;;;;;27.00;99.90;;;;;;5021695;28;7951;-74
2021/12/12 05:39:49;;;;;;;;;;;27.10;99.30;;;;;;5021203;28;7794;-74
2021/12/12 05:42:15;;;;;;;;;;;27.20;99.00;;;;;;5021188;28;8093;-74
2021/12/12 05:44:41;;;;;;;;;;;27.10;99.20;;;;;;5000998;28;8175;-74
2021/12/12 05:47:08;;;;;;;;;;;27.00;98.90;;;;;;5001381;28;7843;-73
2021/12/12 05:49:35;;;;;;;;;;;27.30;98.20;;;;;;5017327;28;7788;-74
2021/12/12 05:52:01;;;;;;;;;;;27.30;97.80;;;;;;5001913;28;7634;-74
2021/12/12 05:54:28;;;;;;;;;;;27.20;96.80;;;;;;5018666;28;8621;-74
2021/12/12 05:56:54;;;;;;;;;;;27.30;97.90;;;;;;5018735;28;7808;-74
2021/12/12 05:59:21;;;;;;;;;;;27.40;96.80;;;;;;5004563;28;8763;-73
2021/12/12 06:01:47;;;;;;;;;;;27.60;97.10;;;;;;5020929;28;8166;-74
2021/12/12 06:04:13;;;;;;;;;;;27.50;98.00;;;;;;5004550;28;7545;-74
2021/12/12 06:06:42;;;;;;;;;;;27.50;96.80;;;;;;5038186;28;8368;-74
2021/12/12 06:09:09;;;;;;;;;;;27.40;96.60;;;;;;5020826;28;7919;-74
2021/12/12 06:11:36;;;;;;;;;;;27.30;97.30;;;;;;5020633;28;7866;-74
2021/12/12 06:14:02;;;;;;;;;;;27.00;97.10;;;;;;5004130;28;7816;-74
2021/12/12 06:16:29;;;;;;;;;;;27.00;97.70;;;;;;5020465;28;8028;-74
2021/12/12 06:19:06;;;;;;;;;;;27.10;98.50;;;;;;5021176;28;7535;-74
2021/12/12 06:21:32;;;;;;;;;;;27.30;98.40;;;;;;5020538;28;8147;-74
2021/12/12 06:23:58;;;;;;;;;;;27.40;97.70;;;;;;5004134;28;7974;-74
2021/12/12 06:26:25;;;;;;;;;;;27.30;96.70;;;;;;5004132;28;7767;-74
2021/12/12 06:28:51;;;;;;;;;;;27.30;97.60;;;;;;5038112;28;8010;-74
2021/12/12 06:31:17;;;;;;;;;;;27.60;97.30;;;;;;5020945;28;7593;-73
2021/12/12 06:33:43;;;;;;;;;;;27.70;96.60;;;;;;5004161;28;7875;-73
2021/12/12 06:36:10;;;;;;;;;;;27.80;95.90;;;;;;5038034;28;7954;-74
2021/12/12 06:38:37;;;;;;;;;;;27.50;96.10;;;;;;5020256;28;7907;-74
2021/12/12 06:41:03;;;;;;;;;;;27.40;96.90;;;;;;5020620;28;8044;-74
2021/12/12 06:43:29;;;;;;;;;;;27.40;97.10;;;;;;5021826;28;7774;-74
2021/12/12 06:45:56;;;;;;;;;;;27.50;97.40;;;;;;5032258;28;7633;-74
2021/12/12 06:48:22;;;;;;;;;;;27.60;96.50;;;;;;5007625;28;7941;-74
2021/12/12 06:50:49;;;;;;;;;;;27.70;95.60;;;;;;5024188;28;9047;-74
2021/12/12 06:53:17;;;;;;;;;;;27.90;95.60;;;;;;5024231;28;7851;-73
2021/12/12 06:55:45;;;;;;;;;;;28.10;95.30;;;;;;5024092;28;7976;-74
2021/12/12 06:58:15;;;;;;;;;;;28.10;95.20;;;;;;5008356;28;7599;-74
2021/12/12 07:00:42;;;;;;;;;;;27.90;95.30;;;;;;5023968;28;7989;-74
2021/12/12 07:03:08;;;;;;;;;;;27.90;95.40;;;;;;5024333;28;7862;-74
2021/12/12 07:05:34;;;;;;;;;;;28.10;94.90;;;;;;5023822;28;7819;-74
2021/12/12 07:08:03;;;;;;;;;;;28.00;94.90;;;;;;5020566;28;8075;-74
2021/12/12 07:10:29;;;;;;;;;;;28.10;94.50;;;;;;5004601;28;7834;-74
2021/12/12 07:12:56;;;;;;;;;;;28.00;94.30;;;;;;5022592;28;7538;-74
2021/12/12 07:15:23;;;;;;;;;;;27.90;94.70;;;;;;5001318;28;8217;-74
2021/12/12 07:17:52;;;;;;;;;;;27.90;94.10;;;;;;5017545;28;8208;-74
2021/12/12 07:20:18;;;;;;;;;;;27.80;94.50;;;;;;5000884;28;7799;-80
2021/12/12 07:22:47;;;;;;;;;;;28.00;94.80;;;;;;5000753;28;7806;-74
2021/12/12 07:25:13;;;;;;;;;;;27.90;94.70;;;;;;5002651;28;7543;-79
2021/12/12 07:27:39;;;;;;;;;;;27.80;94.70;;;;;;5000710;28;7848;-79
2021/12/12 07:30:06;;;;;;;;;;;27.90;94.20;;;;;;5010102;28;8005;-82
2021/12/12 07:32:32;;;;;;;;;;;28.00;93.90;;;;;;5020246;28;8031;-81
2021/12/12 07:34:58;;;;;;;;;;;28.00;93.60;;;;;;5020535;28;7946;-78
2021/12/12 07:37:25;;;;;;;;;;;27.90;94.30;;;;;;5003890;28;8031;-77
2021/12/12 07:39:51;;;;;;;;;;;27.90;94.80;;;;;;5020631;28;7547;-78
2021/12/12 07:42:17;;;;;;;;;;;28.00;93.40;;;;;;5019907;28;8054;-80
2021/12/12 07:44:44;;;;;;;;;;;28.10;93.40;;;;;;5020125;28;7934;-78
2021/12/12 07:47:10;;;;;;;;;;;27.90;92.60;;;;;;5019948;28;7909;-78
2021/12/12 07:49:38;;;;;;;;;;;27.80;92.90;;;;;;5019823;28;8851;-78
2021/12/12 07:52:05;;;;;;;;;;;27.90;93.00;;;;;;5004043;28;7543;-80
2021/12/12 07:54:32;;;;;;;;;;;27.80;92.80;;;;;;5002594;28;8013;-80
2021/12/12 07:56:58;;;;;;;;;;;27.60;93.40;;;;;;5019852;28;8960;-80
2021/12/12 07:59:24;;;;;;;;;;;27.70;92.90;;;;;;5019543;28;7834;-80
2021/12/12 08:01:51;;;;;;;;;;;27.70;92.90;;;;;;5019617;28;7996;-78
2021/12/12 08:04:18;;;;;;;;;;;27.80;93.20;;;;;;5019861;28;7554;-77
2021/12/12 08:06:44;;;;;;;;;;;28.00;93.40;;;;;;5019331;28;7865;-77
2021/12/12 08:09:10;;;;;;;;;;;27.90;93.40;;;;;;5019621;28;8183;-85
2021/12/12 08:11:37;;;;;;;;;;;28.00;93.70;;;;;;5019157;28;7963;-79
2021/12/12 08:14:04;;;;;;;;;;;28.00;92.90;;;;;;5020584;28;7953;-78
2021/12/12 08:16:31;;;;;;;;;;;28.10;93.00;;;;;;5019227;28;7862;-78
2021/12/12 08:18:57;;;;;;;;;;;28.00;92.10;;;;;;5019788;28;7995;-80
2021/12/12 08:21:23;;;;;;;;;;;28.00;92.10;;;;;;5018690;28;7954;-74
2021/12/12 08:23:49;;;;;;;;;;;28.00;92.10;;;;;;5019191;28;8012;-73
2021/12/12 08:26:15;;;;;;;;;;;28.00;92.20;;;;;;5019182;28;7867;-73
2021/12/12 08:28:43;;;;;;;;;;;27.80;92.70;;;;;;5018737;28;7839;-73
2021/12/12 08:31:10;;;;;;;;;;;27.70;94.60;;;;;;5003232;28;7559;-71
2021/12/12 08:33:36;;;;;;;;;;;27.70;94.60;;;;;;5018528;28;7887;-71
2021/12/12 08:36:02;;;;;;;;;;;27.60;94.20;;;;;;5018974;28;7988;-71
2021/12/12 08:38:28;;;;;;;;;;;27.80;92.40;;;;;;5020051;28;7813;-74
2021/12/12 08:40:56;;;;;;;;;;;27.70;92.30;;;;;;5018839;28;7828;-73
2021/12/12 08:43:23;;;;;;;;;;;27.40;94.00;;;;;;5003103;28;7555;-73
2021/12/12 08:45:53;;;;;;;;;;;27.30;94.30;;;;;;5019221;28;8183;-71
2021/12/12 08:48:20;;;;;;;;;;;27.10;94.20;;;;;;5018672;28;8060;-74
2021/12/12 08:50:47;;;;;;;;;;;27.20;94.20;;;;;;5018956;28;7890;-73
2021/12/12 08:53:13;;;;;;;;;;;27.20;94.90;;;;;;5019204;28;8265;-73
2021/12/12 08:55:43;;;;;;;;;;;27.10;94.50;;;;;;5002175;28;7856;-73
2021/12/12 08:58:17;;;;;;;;;;;27.10;94.70;;;;;;5019332;28;7609;-71
2021/12/12 09:00:46;;;;;;;;;;;27.00;95.00;;;;;;5018948;28;7776;-71
2021/12/12 09:03:14;;;;;;;;;;;27.00;95.30;;;;;;5020024;28;7989;-71
2021/12/12 09:05:41;;;;;;;;;;;26.90;95.80;;;;;;5019695;28;7985;-71
2021/12/12 09:08:10;;;;;;;;;;;26.80;96.40;;;;;;5034902;28;7989;-71
2021/12/12 09:11:03;;;;;;;;;;;26.90;95.50;;;;;;5021939;28;8029;-71
2021/12/12 09:13:30;;;;;;;;;;;26.90;96.20;;;;;;5037200;28;8233;-71
2021/12/12 09:16:08;;;;;;;;;;;27.10;96.10;;;;;;5022115;28;7573;-71
2021/12/12 09:18:37;;;;;;;;;;;27.10;97.30;;;;;;5021581;28;8315;-71
2021/12/12 09:21:13;;;;;;;;;;;27.10;97.70;;;;;;5021497;28;7887;-71
2021/12/12 09:23:41;;;;;;;;;;;27.20;97.50;;;;;;5038797;28;7834;-71
2021/12/12 09:26:08;;;;;;;;;;;27.20;97.20;;;;;;5039011;28;7877;-71
2021/12/12 09:28:53;;;;;;;;;;;27.20;96.50;;;;;;5021008;28;7806;-71
2021/12/12 09:31:27;;;;;;;;;;;27.20;95.80;;;;;;5019638;28;7666;-71
2021/12/12 09:34:03;;;;;;;;;;;27.20;95.40;;;;;;4986032;28;7566;-71
2021/12/12 09:36:32;;;;;;;;;;;27.40;94.10;;;;;;5001835;28;8038;-71
2021/12/12 09:39:00;;;;;;;;;;;27.20;94.90;;;;;;4985313;28;8007;-71
2021/12/12 09:41:45;;;;;;;;;;;27.20;94.40;;;;;;4985518;28;8036;-71
2021/12/12 09:44:30;;;;;;;;;;;27.30;94.70;;;;;;5021386;28;8017;-71
2021/12/12 09:47:12;;;;;;;;;;;27.40;94.50;;;;;;5038847;28;7837;-71
2021/12/12 09:52:44;;;;;;;;;;;27.50;94.30;;;;;;5023621;28;8523;-71
2021/12/12 09:55:11;;;;;;;;;;;27.30;94.90;;;;;;5021618;28;7551;-71
2021/12/12 09:57:39;;;;;;;;;;;27.20;95.30;;;;;;5021156;28;7805;-71
2021/12/12 10:00:15;;;;;;;;;;;27.20;95.50;;;;;;5020754;28;7952;-71
2021/12/12 10:03:00;;;;;;;;;;;27.10;95.30;;;;;;5021006;28;7840;-71
2021/12/12 10:05:26;;;;;;;;;;;27.20;94.40;;;;;;5038437;28;7828;-71
2021/12/12 10:07:58;;;;;;;;;;;27.10;94.60;;;;;;5017213;28;8141;-71
2021/12/12 10:10:27;;;;;;;;;;;27.10;94.90;;;;;;5017309;28;7781;-72
2021/12/12 10:12:59;;;;;;;;;;;27.00;94.70;;;;;;5018327;28;7599;-71
2021/12/12 10:15:25;;;;;;;;;;;27.00;95.30;;;;;;5016985;28;8966;-72
2021/12/12 10:17:53;;;;;;;;;;;26.90;96.60;;;;;;5017242;28;7881;-71
2021/12/12 10:20:25;;;;;;;;;;;26.80;96.40;;;;;;5000755;28;8993;-72
2021/12/12 10:22:54;;;;;;;;;;;26.80;96.10;;;;;;5018453;28;7794;-72
2021/12/12 10:25:25;;;;;;;;;;;26.70;95.70;;;;;;5017773;28;7555;-71
2021/12/12 10:27:53;;;;;;;;;;;26.60;95.60;;;;;;5017631;28;8203;-71
2021/12/12 10:30:31;;;;;;;;;;;26.60;95.80;;;;;;5017204;28;7980;-71
2021/12/12 10:33:03;;;;;;;;;;;26.50;95.90;;;;;;5018418;28;8056;-71
2021/12/12 10:35:35;;;;;;;;;;;26.40;96.10;;;;;;5018174;28;7988;-72
2021/12/12 10:38:05;;;;;;;;;;;26.40;97.00;;;;;;5018590;28;7930;-71
2021/12/12 10:40:35;;;;;;;;;;;26.20;97.50;;;;;;5018201;28;8092;-71
2021/12/12 10:43:03;;;;;;;;;;;26.20;97.50;;;;;;5018597;28;7574;-71
2021/12/12 10:45:34;;;;;;;;;;;26.10;98.10;;;;;;5017592;28;7852;-71
2021/12/12 10:48:08;;;;;;;;;;;25.90;98.90;;;;;;5000891;28;8051;-71
2021/12/12 10:50:46;;;;;;;;;;;25.80;98.90;;;;;;5017324;28;8012;-72
2021/12/12 10:53:18;;;;;;;;;;;25.80;99.60;;;;;;5018818;28;7791;-71
2021/12/12 10:55:58;;;;;;;;;;;25.70;99.90;;;;;;5018622;28;7939;-71
2021/12/12 10:58:29;;;;;;;;;;;25.60;99.90;;;;;;5017386;28;7975;-72
2021/12/12 11:01:16;;;;;;;;;;;25.60;99.80;;;;;;5017688;28;7563;-71
2021/12/12 11:03:45;;;;;;;;;;;25.60;99.60;;;;;;5017103;28;8128;-73
2021/12/12 11:06:15;;;;;;;;;;;25.50;99.90;;;;;;5017722;28;8068;-73
2021/12/12 11:09:02;;;;;;;;;;;25.40;99.90;;;;;;5020562;28;7934;-73
2021/12/12 11:11:35;;;;;;;;;;;25.40;99.90;;;;;;5037292;28;8003;-71
2021/12/12 11:14:07;;;;;;;;;;;25.30;99.90;;;;;;5020671;28;7945;-71
2021/12/12 11:16:38;;;;;;;;;;;25.20;99.90;;;;;;5038372;28;8004;-71
2021/12/12 11:19:08;;;;;;;;;;;25.20;99.90;;;;;;5020506;28;7647;-72
2021/12/12 11:21:36;;;;;;;;;;;25.20;99.90;;;;;;5020147;28;7845;-71
2021/12/12 11:24:22;;;;;;;;;;;25.10;99.90;;;;;;5020383;28;7808;-73
2021/12/12 11:26:48;;;;;;;;;;;25.10;99.90;;;;;;5020018;28;7854;-72
2021/12/12 11:29:16;;;;;;;;;;;25.00;99.90;;;;;;5037664;28;7884;-72
2021/12/12 11:31:44;;;;;;;;;;;25.00;99.90;;;;;;5040673;28;7881;-72
2021/12/12 11:34:10;;;;;;;;;;;24.90;99.90;;;;;;5024133;28;7571;-73
2021/12/12 11:37:02;;;;;;;;;;;24.80;99.90;;;;;;5041449;28;8035;-72
2021/12/12 11:39:39;;;;;;;;;;;24.80;99.90;;;;;;5034269;28;7782;-73
2021/12/12 11:42:16;;;;;;;;;;;24.70;99.90;;;;;;5023970;28;7934;-73
2021/12/12 11:45:02;;;;;;;;;;;24.70;99.90;;;;;;5041008;28;8061;-72
2021/12/12 11:47:43;;;;;;;;;;;24.70;99.90;;;;;;5023215;28;7987;-72
2021/12/12 11:50:29;;;;;;;;;;;24.50;99.90;;;;;;5009962;28;8041;-72
2021/12/12 11:52:58;;;;;;;;;;;24.40;99.90;;;;;;5025291;28;7974;-72
2021/12/12 11:55:30;;;;;;;;;;;24.40;99.90;;;;;;5041037;28;7803;-73
2021/12/12 11:58:03;;;;;;;;;;;24.30;99.90;;;;;;5041510;28;7566;-72
2021/12/12 12:00:35;;;;;;;;;;;24.40;99.90;;;;;;5020448;28;7795;-72
2021/12/12 12:03:07;;;;;;;;;;;24.40;99.90;;;;;;5023344;28;8055;-72
2021/12/12 12:05:33;;;;;;;;;;;24.20;99.90;;;;;;5040437;28;8157;-72
2021/12/12 12:08:20;;;;;;;;;;;24.20;99.90;;;;;;5018973;28;8019;-72
2021/12/12 12:10:52;;;;;;;;;;;24.00;99.90;;;;;;5020097;28;7932;-72
2021/12/12 12:13:24;;;;;;;;;;;24.00;99.90;;;;;;5020416;28;7571;-72
2021/12/12 12:15:54;;;;;;;;;;;24.00;99.90;;;;;;5019738;28;7682;-72
2021/12/12 12:18:30;;;;;;;;;;;23.90;99.90;;;;;;5019424;28;8029;-72
2021/12/12 12:21:08;;;;;;;;;;;24.00;99.90;;;;;;5020921;28;7797;-72
2021/12/12 12:23:48;;;;;;;;;;;24.10;99.90;;;;;;5019651;28;8005;-72
2021/12/12 12:29:23;;;;;;;;;;;24.00;99.90;;;;;;5019450;28;7842;-72
2021/12/12 12:31:56;;;;;;;;;;;23.90;99.90;;;;;;4992114;28;7967;-72
2021/12/12 12:34:40;;;;;;;;;;;24.00;99.90;;;;;;5019469;28;8003;-72
2021/12/12 12:37:25;;;;;;;;;;;23.90;99.90;;;;;;5020545;28;7673;-72
2021/12/12 12:40:09;;;;;;;;;;;23.80;99.90;;;;;;5020351;28;7579;-72
2021/12/12 12:42:45;;;;;;;;;;;23.70;99.90;;;;;;5018883;28;7773;-72
2021/12/12 12:45:29;;;;;;;;;;;23.80;99.90;;;;;;5018613;28;7775;-72
2021/12/12 12:48:14;;;;;;;;;;;23.80;99.90;;;;;;5020465;28;7877;-72
2021/12/12 12:50:42;;;;;;;;;;;23.60;99.90;;;;;;5018461;28;7983;-72
2021/12/12 12:53:15;;;;;;;;;;;23.60;99.90;;;;;;5018978;28;8015;-72
2021/12/12 12:55:59;;;;;;;;;;;23.50;99.90;;;;;;5020251;28;7795;-72
2021/12/12 12:58:43;;;;;;;;;;;23.50;99.90;;;;;;5018278;28;8377;-73
2021/12/12 13:01:15;;;;;;;;;;;23.40;99.90;;;;;;5020457;28;7578;-72
2021/12/12 13:03:50;;;;;;;;;;;23.40;99.90;;;;;;5019993;28;7797;-72
2021/12/12 13:06:28;;;;;;;;;;;23.10;99.90;;;;;;5019716;28;8047;-72
2021/12/12 13:09:24;;;;;;;;;;;23.30;99.90;;;;;;5000261;28;7890;-72
2021/12/12 13:12:03;;;;;;;;;;;23.40;99.90;;;;;;4991568;28;7879;-72
2021/12/12 13:14:38;;;;;;;;;;;23.40;99.90;;;;;;4998669;28;7786;-72
2021/12/12 13:17:11;;;;;;;;;;;23.40;99.90;;;;;;4999915;28;7891;-72
2021/12/12 13:19:43;;;;;;;;;;;23.30;99.90;;;;;;4998729;28;8047;-73
2021/12/12 13:22:11;;;;;;;;;;;23.30;99.90;;;;;;4983109;28;7571;-72
2021/12/12 13:24:57;;;;;;;;;;;23.30;99.90;;;;;;4998766;28;8070;-72
2021/12/12 13:27:43;;;;;;;;;;;23.30;99.90;;;;;;4998327;28;8067;-72
2021/12/12 13:30:15;;;;;;;;;;;23.20;99.90;;;;;;4998409;28;7931;-72
2021/12/12 13:32:50;;;;;;;;;;;23.20;99.90;;;;;;4998601;28;7827;-72
2021/12/12 13:35:19;;;;;;;;;;;23.10;99.90;;;;;;4998806;28;9006;-72
2021/12/12 13:38:05;;;;;;;;;;;22.90;99.90;;;;;;4981863;28;8021;-72
2021/12/12 13:40:41;;;;;;;;;;;22.90;99.90;;;;;;4998483;28;7943;-72
2021/12/12 13:43:25;;;;;;;;;;;22.90;99.90;;;;;;4999209;28;7563;-72
2021/12/12 13:45:54;;;;;;;;;;;22.90;99.90;;;;;;4999842;28;7767;-72
2021/12/12 13:48:21;;;;;;;;;;;22.90;99.90;;;;;;4999230;28;8022;-72
2021/12/12 13:50:53;;;;;;;;;;;22.90;99.90;;;;;;4999246;28;8877;-72
2021/12/12 13:53:37;;;;;;;;;;;22.90;99.90;;;;;;4997369;28;7898;-73
2021/12/12 13:56:06;;;;;;;;;;;22.80;99.90;;;;;;4999587;28;7792;-72
2021/12/12 13:58:44;;;;;;;;;;;22.90;99.90;;;;;;4997764;28;7884;-72
2021/12/12 14:01:11;;;;;;;;;;;22.90;99.90;;;;;;4998747;28;7570;-72
2021/12/12 14:03:40;;;;;;;;;;;22.80;99.90;;;;;;4981747;28;8015;-72
2021/12/12 14:06:10;;;;;;;;;;;22.80;99.90;;;;;;4998130;28;7828;-72
2021/12/12 14:08:40;;;;;;;;;;;22.60;99.90;;;;;;5015128;28;7964;-72
2021/12/12 14:11:07;;;;;;;;;;;22.40;99.90;;;;;;5017681;28;8241;-72
2021/12/12 14:13:50;;;;;;;;;;;22.50;99.90;;;;;;5018383;28;8007;-72
2021/12/12 14:16:17;;;;;;;;;;;22.60;99.90;;;;;;5017795;28;7673;-74
2021/12/12 14:18:45;;;;;;;;;;;22.50;99.90;;;;;;5001327;28;7940;-72
2021/12/12 14:21:12;;;;;;;;;;;22.50;99.90;;;;;;5001255;28;8069;-72
2021/12/12 14:23:38;;;;;;;;;;;22.60;99.90;;;;;;5017433;28;7832;-72
2021/12/12 14:26:06;;;;;;;;;;;22.60;99.90;;;;;;5018677;28;8072;-72
2021/12/12 14:28:36;;;;;;;;;;;22.60;99.90;;;;;;5017109;28;8006;-72
2021/12/12 14:31:04;;;;;;;;;;;22.60;99.90;;;;;;5017692;28;7563;-72
2021/12/12 14:33:35;;;;;;;;;;;22.50;99.90;;;;;;5017176;28;7961;-72
2021/12/12 14:36:03;;;;;;;;;;;22.50;99.90;;;;;;5017018;28;7817;-72
2021/12/12 14:38:29;;;;;;;;;;;22.40;99.90;;;;;;5017351;28;8127;-72
2021/12/12 14:40:58;;;;;;;;;;;22.30;99.90;;;;;;5001087;28;7848;-72
2021/12/12 14:43:36;;;;;;;;;;;22.20;99.90;;;;;;5017235;28;7808;-72
2021/12/12 14:46:16;;;;;;;;;;;22.20;99.90;;;;;;5018694;28;7563;-72
2021/12/12 14:48:51;;;;;;;;;;;22.00;99.90;;;;;;5016837;28;7775;-73
2021/12/12 14:51:19;;;;;;;;;;;22.10;99.90;;;;;;5017054;28;8925;-74
2021/12/12 14:53:49;;;;;;;;;;;22.20;99.90;;;;;;5017210;28;8229;-72
2021/12/12 14:56:16;;;;;;;;;;;22.30;99.90;;;;;;5017501;28;7940;-73
2021/12/12 14:59:01;;;;;;;;;;;22.30;99.90;;;;;;5018251;28;8948;-73
2021/12/12 15:01:38;;;;;;;;;;;22.20;99.90;;;;;;4998602;28;7822;-73
2021/12/12 15:04:09;;;;;;;;;;;22.20;99.90;;;;;;4982095;28;7563;-73
2021/12/12 15:06:41;;;;;;;;;;;22.20;99.90;;;;;;5003309;28;7772;-73
2021/12/12 15:09:12;;;;;;;;;;;22.20;99.90;;;;;;5004269;28;9109;-73
2021/12/12 15:11:39;;;;;;;;;;;22.20;99.90;;;;;;5021891;28;7791;-73
2021/12/12 15:14:15;;;;;;;;;;;22.10;99.90;;;;;;4989555;28;7873;-73